sensor_id;sensor_type;location;lat;lon;timestamp;temperature;humidity
67141;DHT22;54058;52.010;5.546;2023-08-30T00:00:36;15.80;83.10
67141;DHT22;54058;52.010;5.546;2023-08-30T00:03:01;15.80;83.10
67141;DHT22;54058;52.010;5.546;2023-08-30T00:05:27;15.80;83.10
67141;DHT22;54058;52.010;5.546;2023-08-30T00:07:54;15.70;83.10
67141;DHT22;54058;52.010;5.546;2023-08-30T00:10:19;15.70;83.20
67141;DHT22;54058;52.010;5.546;2023-08-30T00:12:45;15.70;83.20
67141;DHT22;54058;52.010;5.546;2023-08-30T00:15:11;15.60;83.20
67141;DHT22;54058;52.010;5.546;2023-08-30T00:17:36;15.60;83.30
67141;DHT22;54058;52.010;5.546;2023-08-30T00:20:02;15.50;83.30
67141;DHT22;54058;52.010;5.546;2023-08-30T00:22:28;15.50;83.30
67141;DHT22;54058;52.010;5.546;2023-08-30T00:24:54;15.50;83.40
67141;DHT22;54058;52.010;5.546;2023-08-30T00:27:20;15.50;83.40
67141;DHT22;54058;52.010;5.546;2023-08-30T00:29:46;15.40;83.40
67141;DHT22;54058;52.010;5.546;2023-08-30T00:32:12;15.40;83.40
67141;DHT22;54058;52.010;5.546;2023-08-30T00:34:37;15.40;83.50
67141;DHT22;54058;52.010;5.546;2023-08-30T00:37:03;15.40;83.50
67141;DHT22;54058;52.010;5.546;2023-08-30T00:39:29;15.30;83.50
67141;DHT22;54058;52.010;5.546;2023-08-30T00:41:55;15.30;83.50
67141;DHT22;54058;52.010;5.546;2023-08-30T00:44:20;15.30;83.50
67141;DHT22;54058;52.010;5.546;2023-08-30T00:46:46;15.20;83.50
67141;DHT22;54058;52.010;5.546;2023-08-30T00:49:12;15.20;83.60
67141;DHT22;54058;52.010;5.546;2023-08-30T00:51:38;15.20;83.70
67141;DHT22;54058;52.010;5.546;2023-08-30T00:54:04;15.20;83.80
67141;DHT22;54058;52.010;5.546;2023-08-30T00:56:32;15.20;83.80
67141;DHT22;54058;52.010;5.546;2023-08-30T00:58:57;15.20;83.80
67141;DHT22;54058;52.010;5.546;2023-08-30T01:01:23;15.10;83.80
67141;DHT22;54058;52.010;5.546;2023-08-30T01:03:49;15.10;83.90
67141;DHT22;54058;52.010;5.546;2023-08-30T01:06:14;15.10;84.00
67141;DHT22;54058;52.010;5.546;2023-08-30T01:08:41;15.10;84.00
67141;DHT22;54058;52.010;5.546;2023-08-30T01:11:15;15.10;84.10
67141;DHT22;54058;52.010;5.546;2023-08-30T01:13:55;15.10;84.20
67141;DHT22;54058;52.010;5.546;2023-08-30T01:16:21;15.20;84.50
67141;DHT22;54058;52.010;5.546;2023-08-30T01:18:51;15.20;84.30
67141;DHT22;54058;52.010;5.546;2023-08-30T01:23:59;15.30;84.40
67141;DHT22;54058;52.010;5.546;2023-08-30T01:26:45;15.30;84.30
67141;DHT22;54058;52.010;5.546;2023-08-30T01:29:19;15.30;84.70
67141;DHT22;54058;52.010;5.546;2023-08-30T01:31:46;15.30;84.20
67141;DHT22;54058;52.010;5.546;2023-08-30T01:34:14;15.30;84.30
67141;DHT22;54058;52.010;5.546;2023-08-30T01:36:41;15.40;84.30
67141;DHT22;54058;52.010;5.546;2023-08-30T01:39:09;15.40;84.30
67141;DHT22;54058;52.010;5.546;2023-08-30T01:41:36;15.40;84.40
67141;DHT22;54058;52.010;5.546;2023-08-30T01:44:03;15.40;85.00
67141;DHT22;54058;52.010;5.546;2023-08-30T01:46:32;15.40;84.30
67141;DHT22;54058;52.010;5.546;2023-08-30T01:48:58;15.40;84.50
67141;DHT22;54058;52.010;5.546;2023-08-30T01:51:24;15.40;84.40
67141;DHT22;54058;52.010;5.546;2023-08-30T01:53:51;15.40;84.40
67141;DHT22;54058;52.010;5.546;2023-08-30T01:56:17;15.50;84.50
67141;DHT22;54058;52.010;5.546;2023-08-30T01:58:43;15.50;84.50
67141;DHT22;54058;52.010;5.546;2023-08-30T02:01:08;15.50;84.50
67141;DHT22;54058;52.010;5.546;2023-08-30T02:03:34;15.50;84.50
67141;DHT22;54058;52.010;5.546;2023-08-30T02:06:09;15.50;84.50
67141;DHT22;54058;52.010;5.546;2023-08-30T02:08:41;15.50;84.50
67141;DHT22;54058;52.010;5.546;2023-08-30T02:11:15;15.50;84.40
67141;DHT22;54058;52.010;5.546;2023-08-30T02:13:42;15.50;84.40
67141;DHT22;54058;52.010;5.546;2023-08-30T02:16:10;15.60;84.50
67141;DHT22;54058;52.010;5.546;2023-08-30T02:18:37;15.50;84.50
67141;DHT22;54058;52.010;5.546;2023-08-30T02:21:03;15.60;84.50
67141;DHT22;54058;52.010;5.546;2023-08-30T02:23:28;15.60;84.50
67141;DHT22;54058;52.010;5.546;2023-08-30T02:25:54;15.50;84.40
67141;DHT22;54058;52.010;5.546;2023-08-30T02:28:21;15.50;84.50
67141;DHT22;54058;52.010;5.546;2023-08-30T02:30:46;15.60;84.60
67141;DHT22;54058;52.010;5.546;2023-08-30T02:33:12;15.50;84.50
67141;DHT22;54058;52.010;5.546;2023-08-30T02:35:37;15.60;84.50
67141;DHT22;54058;52.010;5.546;2023-08-30T02:38:03;15.60;84.50
67141;DHT22;54058;52.010;5.546;2023-08-30T02:40:30;15.60;84.50
67141;DHT22;54058;52.010;5.546;2023-08-30T02:42:57;15.60;84.40
67141;DHT22;54058;52.010;5.546;2023-08-30T02:45:22;15.60;84.30
67141;DHT22;54058;52.010;5.546;2023-08-30T02:47:48;15.60;84.40
67141;DHT22;54058;52.010;5.546;2023-08-30T02:50:14;15.60;84.30
67141;DHT22;54058;52.010;5.546;2023-08-30T02:52:39;15.60;84.30
67141;DHT22;54058;52.010;5.546;2023-08-30T02:55:05;15.60;84.20
67141;DHT22;54058;52.010;5.546;2023-08-30T02:57:31;15.60;84.20
67141;DHT22;54058;52.010;5.546;2023-08-30T02:59:57;15.60;84.10
67141;DHT22;54058;52.010;5.546;2023-08-30T03:02:22;15.60;84.20
67141;DHT22;54058;52.010;5.546;2023-08-30T03:04:48;15.60;84.20
67141;DHT22;54058;52.010;5.546;2023-08-30T03:07:14;15.70;84.20
67141;DHT22;54058;52.010;5.546;2023-08-30T03:09:39;15.60;84.10
67141;DHT22;54058;52.010;5.546;2023-08-30T03:12:06;15.60;84.10
67141;DHT22;54058;52.010;5.546;2023-08-30T03:14:32;15.70;84.10
67141;DHT22;54058;52.010;5.546;2023-08-30T03:16:57;15.60;84.10
67141;DHT22;54058;52.010;5.546;2023-08-30T03:19:23;15.60;84.00
67141;DHT22;54058;52.010;5.546;2023-08-30T03:21:49;15.60;84.10
67141;DHT22;54058;52.010;5.546;2023-08-30T03:24:14;15.50;84.00
67141;DHT22;54058;52.010;5.546;2023-08-30T03:26:43;15.60;84.10
67141;DHT22;54058;52.010;5.546;2023-08-30T03:29:08;15.50;84.00
67141;DHT22;54058;52.010;5.546;2023-08-30T03:31:34;15.50;84.00
67141;DHT22;54058;52.010;5.546;2023-08-30T03:34:00;15.50;84.10
67141;DHT22;54058;52.010;5.546;2023-08-30T03:36:26;15.50;84.10
67141;DHT22;54058;52.010;5.546;2023-08-30T03:38:51;15.50;84.10
67141;DHT22;54058;52.010;5.546;2023-08-30T03:41:18;15.50;84.10
67141;DHT22;54058;52.010;5.546;2023-08-30T03:43:43;15.40;84.00
67141;DHT22;54058;52.010;5.546;2023-08-30T03:46:09;15.40;84.00
67141;DHT22;54058;52.010;5.546;2023-08-30T03:48:37;15.40;83.90
67141;DHT22;54058;52.010;5.546;2023-08-30T03:51:03;15.30;83.90
67141;DHT22;54058;52.010;5.546;2023-08-30T03:53:28;15.30;83.80
67141;DHT22;54058;52.010;5.546;2023-08-30T03:55:55;15.30;83.80
67141;DHT22;54058;52.010;5.546;2023-08-30T03:58:21;15.20;83.70
67141;DHT22;54058;52.010;5.546;2023-08-30T04:00:47;15.20;83.70
67141;DHT22;54058;52.010;5.546;2023-08-30T04:03:14;15.20;83.80
67141;DHT22;54058;52.010;5.546;2023-08-30T04:05:40;15.10;83.70
67141;DHT22;54058;52.010;5.546;2023-08-30T04:08:07;15.00;83.70
67141;DHT22;54058;52.010;5.546;2023-08-30T04:10:40;15.00;83.70
67141;DHT22;54058;52.010;5.546;2023-08-30T04:13:07;15.00;83.90
67141;DHT22;54058;52.010;5.546;2023-08-30T04:15:37;14.90;83.70
67141;DHT22;54058;52.010;5.546;2023-08-30T04:18:03;14.90;84.70
67141;DHT22;54058;52.010;5.546;2023-08-30T04:20:30;14.80;83.70
67141;DHT22;54058;52.010;5.546;2023-08-30T04:22:55;14.80;83.60
67141;DHT22;54058;52.010;5.546;2023-08-30T04:25:22;14.80;83.70
67141;DHT22;54058;52.010;5.546;2023-08-30T04:27:48;14.70;83.70
67141;DHT22;54058;52.010;5.546;2023-08-30T04:30:15;14.70;83.80
67141;DHT22;54058;52.010;5.546;2023-08-30T04:32:40;14.70;83.80
67141;DHT22;54058;52.010;5.546;2023-08-30T04:35:06;14.70;83.80
67141;DHT22;54058;52.010;5.546;2023-08-30T04:37:32;14.60;83.90
67141;DHT22;54058;52.010;5.546;2023-08-30T04:39:57;14.60;83.90
67141;DHT22;54058;52.010;5.546;2023-08-30T04:42:23;14.60;83.80
67141;DHT22;54058;52.010;5.546;2023-08-30T04:44:50;14.60;83.90
67141;DHT22;54058;52.010;5.546;2023-08-30T04:47:16;14.60;83.90
67141;DHT22;54058;52.010;5.546;2023-08-30T04:49:42;14.50;83.90
67141;DHT22;54058;52.010;5.546;2023-08-30T04:52:08;14.50;83.80
67141;DHT22;54058;52.010;5.546;2023-08-30T04:54:33;14.50;83.90
67141;DHT22;54058;52.010;5.546;2023-08-30T04:56:59;14.50;84.00
67141;DHT22;54058;52.010;5.546;2023-08-30T04:59:24;14.50;84.00
67141;DHT22;54058;52.010;5.546;2023-08-30T05:01:50;14.50;84.00
67141;DHT22;54058;52.010;5.546;2023-08-30T05:04:17;14.50;83.90
67141;DHT22;54058;52.010;5.546;2023-08-30T05:06:43;14.50;83.90
67141;DHT22;54058;52.010;5.546;2023-08-30T05:09:08;14.50;83.90
67141;DHT22;54058;52.010;5.546;2023-08-30T05:11:34;14.60;84.00
67141;DHT22;54058;52.010;5.546;2023-08-30T05:14:00;14.50;83.90
67141;DHT22;54058;52.010;5.546;2023-08-30T05:16:25;14.50;84.60
67141;DHT22;54058;52.010;5.546;2023-08-30T05:18:51;14.60;84.10
67141;DHT22;54058;52.010;5.546;2023-08-30T05:21:16;14.60;84.20
67141;DHT22;54058;52.010;5.546;2023-08-30T05:23:42;14.60;84.10
67141;DHT22;54058;52.010;5.546;2023-08-30T05:26:11;14.70;84.10
67141;DHT22;54058;52.010;5.546;2023-08-30T05:28:42;14.70;84.10
67141;DHT22;54058;52.010;5.546;2023-08-30T05:31:08;14.70;84.10
67141;DHT22;54058;52.010;5.546;2023-08-30T05:33:34;14.70;84.10
67141;DHT22;54058;52.010;5.546;2023-08-30T05:35:59;14.80;84.20
67141;DHT22;54058;52.010;5.546;2023-08-30T05:38:25;14.80;84.20
67141;DHT22;54058;52.010;5.546;2023-08-30T05:40:51;14.80;84.30
67141;DHT22;54058;52.010;5.546;2023-08-30T05:43:16;14.90;84.50
67141;DHT22;54058;52.010;5.546;2023-08-30T05:45:43;15.00;84.70
67141;DHT22;54058;52.010;5.546;2023-08-30T05:48:09;15.00;84.70
67141;DHT22;54058;52.010;5.546;2023-08-30T05:50:34;15.10;84.80
67141;DHT22;54058;52.010;5.546;2023-08-30T05:53:01;15.20;84.80
67141;DHT22;54058;52.010;5.546;2023-08-30T05:55:26;15.30;84.70
67141;DHT22;54058;52.010;5.546;2023-08-30T05:57:52;15.30;84.70
67141;DHT22;54058;52.010;5.546;2023-08-30T06:00:18;15.40;84.80
67141;DHT22;54058;52.010;5.546;2023-08-30T06:02:43;15.40;84.70
67141;DHT22;54058;52.010;5.546;2023-08-30T06:05:10;15.40;84.70
67141;DHT22;54058;52.010;5.546;2023-08-30T06:07:35;15.50;84.80
67141;DHT22;54058;52.010;5.546;2023-08-30T06:10:01;15.50;84.90
67141;DHT22;54058;52.010;5.546;2023-08-30T06:12:27;15.50;84.80
67141;DHT22;54058;52.010;5.546;2023-08-30T06:14:53;15.60;85.40
67141;DHT22;54058;52.010;5.546;2023-08-30T06:17:19;15.60;84.90
67141;DHT22;54058;52.010;5.546;2023-08-30T06:19:45;15.60;85.00
67141;DHT22;54058;52.010;5.546;2023-08-30T06:22:12;15.60;85.10
67141;DHT22;54058;52.010;5.546;2023-08-30T06:24:37;15.60;85.00
67141;DHT22;54058;52.010;5.546;2023-08-30T06:27:04;15.60;85.20
67141;DHT22;54058;52.010;5.546;2023-08-30T06:29:29;15.60;85.20
67141;DHT22;54058;52.010;5.546;2023-08-30T06:31:55;15.60;85.20
67141;DHT22;54058;52.010;5.546;2023-08-30T06:34:21;15.60;85.30
67141;DHT22;54058;52.010;5.546;2023-08-30T06:36:46;15.70;85.30
67141;DHT22;54058;52.010;5.546;2023-08-30T06:39:12;15.70;85.30
67141;DHT22;54058;52.010;5.546;2023-08-30T06:41:38;15.80;85.90
67141;DHT22;54058;52.010;5.546;2023-08-30T06:44:05;15.80;85.40
67141;DHT22;54058;52.010;5.546;2023-08-30T06:46:30;15.80;85.40
67141;DHT22;54058;52.010;5.546;2023-08-30T06:48:56;15.80;85.90
67141;DHT22;54058;52.010;5.546;2023-08-30T06:51:21;15.80;85.40
67141;DHT22;54058;52.010;5.546;2023-08-30T06:53:47;15.80;85.60
67141;DHT22;54058;52.010;5.546;2023-08-30T06:56:13;15.80;85.60
67141;DHT22;54058;52.010;5.546;2023-08-30T06:58:38;15.80;85.70
67141;DHT22;54058;52.010;5.546;2023-08-30T07:01:04;15.80;85.90
67141;DHT22;54058;52.010;5.546;2023-08-30T07:03:30;15.80;85.90
67141;DHT22;54058;52.010;5.546;2023-08-30T07:05:55;15.70;85.90
67141;DHT22;54058;52.010;5.546;2023-08-30T07:08:21;15.70;86.00
67141;DHT22;54058;52.010;5.546;2023-08-30T07:10:47;15.70;86.20
67141;DHT22;54058;52.010;5.546;2023-08-30T07:13:13;15.70;86.20
67141;DHT22;54058;52.010;5.546;2023-08-30T07:15:40;15.60;86.30
67141;DHT22;54058;52.010;5.546;2023-08-30T07:18:06;15.60;86.40
67141;DHT22;54058;52.010;5.546;2023-08-30T07:20:32;15.60;86.50
67141;DHT22;54058;52.010;5.546;2023-08-30T07:22:58;15.50;86.60
67141;DHT22;54058;52.010;5.546;2023-08-30T07:25:24;15.50;86.70
67141;DHT22;54058;52.010;5.546;2023-08-30T07:27:49;15.50;87.50
67141;DHT22;54058;52.010;5.546;2023-08-30T07:30:15;15.40;87.00
67141;DHT22;54058;52.010;5.546;2023-08-30T07:32:41;15.40;87.10
67141;DHT22;54058;52.010;5.546;2023-08-30T07:35:07;15.40;87.20
67141;DHT22;54058;52.010;5.546;2023-08-30T07:37:35;15.40;87.20
67141;DHT22;54058;52.010;5.546;2023-08-30T07:40:01;15.40;87.30
67141;DHT22;54058;52.010;5.546;2023-08-30T07:42:29;15.40;87.40
67141;DHT22;54058;52.010;5.546;2023-08-30T07:44:55;15.40;87.40
67141;DHT22;54058;52.010;5.546;2023-08-30T07:47:21;15.30;87.50
67141;DHT22;54058;52.010;5.546;2023-08-30T07:49:46;15.30;87.50
67141;DHT22;54058;52.010;5.546;2023-08-30T07:52:12;15.30;87.70
67141;DHT22;54058;52.010;5.546;2023-08-30T07:54:39;15.20;88.00
67141;DHT22;54058;52.010;5.546;2023-08-30T07:57:05;15.20;88.10
67141;DHT22;54058;52.010;5.546;2023-08-30T07:59:33;15.20;88.20
67141;DHT22;54058;52.010;5.546;2023-08-30T08:01:59;15.20;88.10
67141;DHT22;54058;52.010;5.546;2023-08-30T08:04:24;15.10;88.40
67141;DHT22;54058;52.010;5.546;2023-08-30T08:06:51;15.20;88.80
67141;DHT22;54058;52.010;5.546;2023-08-30T08:09:17;15.20;88.80
67141;DHT22;54058;52.010;5.546;2023-08-30T08:11:42;15.20;88.80
67141;DHT22;54058;52.010;5.546;2023-08-30T08:14:10;15.20;88.90
67141;DHT22;54058;52.010;5.546;2023-08-30T08:16:36;15.30;89.00
67141;DHT22;54058;52.010;5.546;2023-08-30T08:19:02;15.30;89.00
67141;DHT22;54058;52.010;5.546;2023-08-30T08:21:28;15.40;89.00
67141;DHT22;54058;52.010;5.546;2023-08-30T08:23:53;15.40;89.20
67141;DHT22;54058;52.010;5.546;2023-08-30T08:26:19;15.40;89.20
67141;DHT22;54058;52.010;5.546;2023-08-30T08:28:45;15.50;89.30
67141;DHT22;54058;52.010;5.546;2023-08-30T08:31:10;15.50;89.30
67141;DHT22;54058;52.010;5.546;2023-08-30T08:33:36;15.50;89.30
67141;DHT22;54058;52.010;5.546;2023-08-30T08:36:02;15.50;89.50
67141;DHT22;54058;52.010;5.546;2023-08-30T08:38:27;15.60;89.60
67141;DHT22;54058;52.010;5.546;2023-08-30T08:41:01;15.60;89.70
67141;DHT22;54058;52.010;5.546;2023-08-30T08:43:28;15.60;89.90
67141;DHT22;54058;52.010;5.546;2023-08-30T08:45:55;15.60;90.00
67141;DHT22;54058;52.010;5.546;2023-08-30T08:48:22;15.50;91.00
67141;DHT22;54058;52.010;5.546;2023-08-30T08:50:49;15.50;90.10
67141;DHT22;54058;52.010;5.546;2023-08-30T08:53:15;15.50;90.10
67141;DHT22;54058;52.010;5.546;2023-08-30T08:55:40;15.60;90.10
67141;DHT22;54058;52.010;5.546;2023-08-30T08:58:07;15.60;90.00
67141;DHT22;54058;52.010;5.546;2023-08-30T09:00:33;15.60;90.00
67141;DHT22;54058;52.010;5.546;2023-08-30T09:02:59;15.60;90.10
67141;DHT22;54058;52.010;5.546;2023-08-30T09:05:26;15.60;90.10
67141;DHT22;54058;52.010;5.546;2023-08-30T09:07:54;15.70;90.20
67141;DHT22;54058;52.010;5.546;2023-08-30T09:10:20;15.70;90.20
67141;DHT22;54058;52.010;5.546;2023-08-30T09:12:47;15.70;90.20
67141;DHT22;54058;52.010;5.546;2023-08-30T09:15:13;15.80;90.20
67141;DHT22;54058;52.010;5.546;2023-08-30T09:17:40;15.80;90.20
67141;DHT22;54058;52.010;5.546;2023-08-30T09:20:11;15.80;91.30
67141;DHT22;54058;52.010;5.546;2023-08-30T09:22:38;15.80;90.20
67141;DHT22;54058;52.010;5.546;2023-08-30T09:25:06;15.80;90.20
67141;DHT22;54058;52.010;5.546;2023-08-30T09:27:33;15.90;90.20
67141;DHT22;54058;52.010;5.546;2023-08-30T09:29:59;16.00;90.20
67141;DHT22;54058;52.010;5.546;2023-08-30T09:32:24;16.00;91.20
67141;DHT22;54058;52.010;5.546;2023-08-30T09:34:51;16.10;90.30
67141;DHT22;54058;52.010;5.546;2023-08-30T09:37:23;16.10;90.20
67141;DHT22;54058;52.010;5.546;2023-08-30T09:39:49;16.20;90.30
67141;DHT22;54058;52.010;5.546;2023-08-30T09:42:17;16.30;90.30
67141;DHT22;54058;52.010;5.546;2023-08-30T09:44:45;16.30;90.30
67141;DHT22;54058;52.010;5.546;2023-08-30T09:47:12;16.30;90.30
67141;DHT22;54058;52.010;5.546;2023-08-30T09:49:44;16.30;90.40
67141;DHT22;54058;52.010;5.546;2023-08-30T09:52:12;16.40;90.50
67141;DHT22;54058;52.010;5.546;2023-08-30T09:54:38;16.50;90.60
67141;DHT22;54058;52.010;5.546;2023-08-30T09:57:07;16.60;90.60
67141;DHT22;54058;52.010;5.546;2023-08-30T09:59:33;16.60;90.60
67141;DHT22;54058;52.010;5.546;2023-08-30T10:01:58;16.70;90.60
67141;DHT22;54058;52.010;5.546;2023-08-30T10:04:26;16.80;90.70
67141;DHT22;54058;52.010;5.546;2023-08-30T10:06:54;16.90;90.80
67141;DHT22;54058;52.010;5.546;2023-08-30T10:09:21;17.00;91.00
67141;DHT22;54058;52.010;5.546;2023-08-30T10:11:47;17.10;90.80
67141;DHT22;54058;52.010;5.546;2023-08-30T10:14:13;17.20;90.70
67141;DHT22;54058;52.010;5.546;2023-08-30T10:16:46;17.30;90.80
67141;DHT22;54058;52.010;5.546;2023-08-30T10:19:28;17.60;91.00
67141;DHT22;54058;52.010;5.546;2023-08-30T10:22:00;17.90;90.90
67141;DHT22;54058;52.010;5.546;2023-08-30T10:24:29;18.10;90.90
67141;DHT22;54058;52.010;5.546;2023-08-30T10:26:56;18.30;90.90
67141;DHT22;54058;52.010;5.546;2023-08-30T10:29:23;18.60;90.90
67141;DHT22;54058;52.010;5.546;2023-08-30T10:31:49;18.80;91.00
67141;DHT22;54058;52.010;5.546;2023-08-30T10:34:16;18.90;90.90
67141;DHT22;54058;52.010;5.546;2023-08-30T10:36:43;18.90;91.00
67141;DHT22;54058;52.010;5.546;2023-08-30T10:39:12;18.90;91.10
67141;DHT22;54058;52.010;5.546;2023-08-30T10:41:54;18.90;91.00
67141;DHT22;54058;52.010;5.546;2023-08-30T10:44:22;18.90;91.20
67141;DHT22;54058;52.010;5.546;2023-08-30T10:46:52;18.90;91.20
67141;DHT22;54058;52.010;5.546;2023-08-30T10:49:19;19.00;91.30
67141;DHT22;54058;52.010;5.546;2023-08-30T10:51:45;19.10;91.40
67141;DHT22;54058;52.010;5.546;2023-08-30T10:54:14;19.10;91.50
67141;DHT22;54058;52.010;5.546;2023-08-30T10:56:57;19.00;91.50
67141;DHT22;54058;52.010;5.546;2023-08-30T10:59:26;19.10;91.60
67141;DHT22;54058;52.010;5.546;2023-08-30T11:01:53;19.20;91.60
67141;DHT22;54058;52.010;5.546;2023-08-30T11:04:19;19.30;91.50
67141;DHT22;54058;52.010;5.546;2023-08-30T11:06:46;19.30;91.40
67141;DHT22;54058;52.010;5.546;2023-08-30T11:09:23;19.30;91.30
67141;DHT22;54058;52.010;5.546;2023-08-30T11:11:50;19.50;91.20
67141;DHT22;54058;52.010;5.546;2023-08-30T11:14:17;19.70;91.30
67141;DHT22;54058;52.010;5.546;2023-08-30T11:16:43;19.80;91.10
67141;DHT22;54058;52.010;5.546;2023-08-30T11:19:10;19.90;91.10
67141;DHT22;54058;52.010;5.546;2023-08-30T11:21:39;19.90;90.90
67141;DHT22;54058;52.010;5.546;2023-08-30T11:24:06;20.20;90.20
67141;DHT22;54058;52.010;5.546;2023-08-30T11:26:32;20.30;90.60
67141;DHT22;54058;52.010;5.546;2023-08-30T11:28:58;20.40;90.50
67141;DHT22;54058;52.010;5.546;2023-08-30T11:31:28;20.50;90.30
67141;DHT22;54058;52.010;5.546;2023-08-30T11:33:56;20.50;90.00
67141;DHT22;54058;52.010;5.546;2023-08-30T11:36:24;20.50;90.20
67141;DHT22;54058;52.010;5.546;2023-08-30T11:38:51;20.60;90.30
67141;DHT22;54058;52.010;5.546;2023-08-30T11:41:17;20.60;90.10
67141;DHT22;54058;52.010;5.546;2023-08-30T11:43:45;20.60;90.10
67141;DHT22;54058;52.010;5.546;2023-08-30T11:46:11;20.60;89.80
67141;DHT22;54058;52.010;5.546;2023-08-30T11:48:39;20.60;89.80
67141;DHT22;54058;52.010;5.546;2023-08-30T11:51:05;20.60;89.50
67141;DHT22;54058;52.010;5.546;2023-08-30T11:53:32;20.60;89.70
67141;DHT22;54058;52.010;5.546;2023-08-30T11:55:57;20.60;89.60
67141;DHT22;54058;52.010;5.546;2023-08-30T11:58:23;20.80;89.10
67141;DHT22;54058;52.010;5.546;2023-08-30T12:00:50;20.90;88.80
67141;DHT22;54058;52.010;5.546;2023-08-30T12:03:16;20.80;88.20
67141;DHT22;54058;52.010;5.546;2023-08-30T12:05:46;20.80;88.00
67141;DHT22;54058;52.010;5.546;2023-08-30T12:10:54;20.90;88.10
67141;DHT22;54058;52.010;5.546;2023-08-30T12:13:21;20.90;87.90
67141;DHT22;54058;52.010;5.546;2023-08-30T12:15:47;20.80;88.30
67141;DHT22;54058;52.010;5.546;2023-08-30T12:18:13;20.80;87.90
67141;DHT22;54058;52.010;5.546;2023-08-30T12:20:38;20.70;87.60
67141;DHT22;54058;52.010;5.546;2023-08-30T12:23:04;20.40;87.50
67141;DHT22;54058;52.010;5.546;2023-08-30T12:25:30;20.30;87.80
67141;DHT22;54058;52.010;5.546;2023-08-30T12:27:57;20.10;87.50
67141;DHT22;54058;52.010;5.546;2023-08-30T12:30:23;20.00;87.60
67141;DHT22;54058;52.010;5.546;2023-08-30T12:32:49;20.20;88.50
67141;DHT22;54058;52.010;5.546;2023-08-30T12:35:15;20.40;87.70
67141;DHT22;54058;52.010;5.546;2023-08-30T12:37:41;20.60;87.10
67141;DHT22;54058;52.010;5.546;2023-08-30T12:40:06;20.70;87.00
67141;DHT22;54058;52.010;5.546;2023-08-30T12:42:33;20.70;86.10
67141;DHT22;54058;52.010;5.546;2023-08-30T12:44:59;20.80;86.10
67141;DHT22;54058;52.010;5.546;2023-08-30T12:47:24;20.80;85.80
67141;DHT22;54058;52.010;5.546;2023-08-30T12:49:50;20.70;85.80
67141;DHT22;54058;52.010;5.546;2023-08-30T12:52:15;20.60;85.80
67141;DHT22;54058;52.010;5.546;2023-08-30T12:54:44;20.60;85.60
67141;DHT22;54058;52.010;5.546;2023-08-30T12:57:09;20.70;85.30
67141;DHT22;54058;52.010;5.546;2023-08-30T12:59:35;20.80;84.90
67141;DHT22;54058;52.010;5.546;2023-08-30T13:02:01;20.80;84.30
67141;DHT22;54058;52.010;5.546;2023-08-30T13:04:26;20.90;84.40
67141;DHT22;54058;52.010;5.546;2023-08-30T13:06:52;21.00;83.90
67141;DHT22;54058;52.010;5.546;2023-08-30T13:09:17;21.00;83.70
67141;DHT22;54058;52.010;5.546;2023-08-30T13:11:43;21.00;83.40
67141;DHT22;54058;52.010;5.546;2023-08-30T13:14:09;21.00;83.20
67141;DHT22;54058;52.010;5.546;2023-08-30T13:16:34;21.00;82.90
67141;DHT22;54058;52.010;5.546;2023-08-30T13:19:01;20.90;82.90
67141;DHT22;54058;52.010;5.546;2023-08-30T13:21:26;20.80;82.70
67141;DHT22;54058;52.010;5.546;2023-08-30T13:23:52;20.80;82.60
67141;DHT22;54058;52.010;5.546;2023-08-30T13:26:18;20.80;82.60
67141;DHT22;54058;52.010;5.546;2023-08-30T13:28:43;20.70;81.60
67141;DHT22;54058;52.010;5.546;2023-08-30T13:31:09;20.80;81.30
67141;DHT22;54058;52.010;5.546;2023-08-30T13:33:34;20.70;80.70
67141;DHT22;54058;52.010;5.546;2023-08-30T13:36:00;20.60;80.60
67141;DHT22;54058;52.010;5.546;2023-08-30T13:38:26;20.60;80.90
67141;DHT22;54058;52.010;5.546;2023-08-30T13:40:57;20.50;79.70
67141;DHT22;54058;52.010;5.546;2023-08-30T13:43:23;20.50;80.40
67141;DHT22;54058;52.010;5.546;2023-08-30T13:45:57;20.40;79.90
67141;DHT22;54058;52.010;5.546;2023-08-30T13:48:22;20.40;79.70
67141;DHT22;54058;52.010;5.546;2023-08-30T13:50:48;20.30;80.40
67141;DHT22;54058;52.010;5.546;2023-08-30T13:53:15;20.30;80.40
67141;DHT22;54058;52.010;5.546;2023-08-30T13:55:45;20.30;76.60
67141;DHT22;54058;52.010;5.546;2023-08-30T13:58:11;20.20;79.90
67141;DHT22;54058;52.010;5.546;2023-08-30T14:00:36;20.30;80.30
67141;DHT22;54058;52.010;5.546;2023-08-30T14:03:02;20.30;80.40
67141;DHT22;54058;52.010;5.546;2023-08-30T14:05:28;20.40;80.20
67141;DHT22;54058;52.010;5.546;2023-08-30T14:07:54;20.40;79.40
67141;DHT22;54058;52.010;5.546;2023-08-30T14:10:19;20.30;79.00
67141;DHT22;54058;52.010;5.546;2023-08-30T14:12:45;20.30;80.00
67141;DHT22;54058;52.010;5.546;2023-08-30T14:15:10;20.20;80.10
67141;DHT22;54058;52.010;5.546;2023-08-30T14:17:36;20.20;80.60
67141;DHT22;54058;52.010;5.546;2023-08-30T14:20:02;20.20;80.70
67141;DHT22;54058;52.010;5.546;2023-08-30T14:22:28;20.20;79.60
67141;DHT22;54058;52.010;5.546;2023-08-30T14:24:53;20.20;80.00
67141;DHT22;54058;52.010;5.546;2023-08-30T14:27:19;20.20;80.70
67141;DHT22;54058;52.010;5.546;2023-08-30T14:29:45;20.20;79.80
67141;DHT22;54058;52.010;5.546;2023-08-30T14:32:10;20.10;79.90
67141;DHT22;54058;52.010;5.546;2023-08-30T14:34:36;20.10;80.40
67141;DHT22;54058;52.010;5.546;2023-08-30T14:37:01;20.00;79.80
67141;DHT22;54058;52.010;5.546;2023-08-30T14:39:27;20.00;80.40
67141;DHT22;54058;52.010;5.546;2023-08-30T14:41:53;20.00;79.90
67141;DHT22;54058;52.010;5.546;2023-08-30T14:44:22;20.00;80.00
67141;DHT22;54058;52.010;5.546;2023-08-30T14:46:47;19.90;78.90
67141;DHT22;54058;52.010;5.546;2023-08-30T14:49:13;19.80;79.00
67141;DHT22;54058;52.010;5.546;2023-08-30T14:51:38;19.80;79.70
67141;DHT22;54058;52.010;5.546;2023-08-30T14:54:04;19.60;79.30
67141;DHT22;54058;52.010;5.546;2023-08-30T14:56:30;19.50;79.80
67141;DHT22;54058;52.010;5.546;2023-08-30T14:58:55;19.40;80.20
67141;DHT22;54058;52.010;5.546;2023-08-30T15:01:21;19.40;80.50
67141;DHT22;54058;52.010;5.546;2023-08-30T15:03:47;19.30;80.30
67141;DHT22;54058;52.010;5.546;2023-08-30T15:06:12;19.20;80.40
67141;DHT22;54058;52.010;5.546;2023-08-30T15:08:38;19.10;80.30
67141;DHT22;54058;52.010;5.546;2023-08-30T15:11:04;19.10;80.70
67141;DHT22;54058;52.010;5.546;2023-08-30T15:13:29;19.10;80.90
67141;DHT22;54058;52.010;5.546;2023-08-30T15:15:55;19.10;80.70
67141;DHT22;54058;52.010;5.546;2023-08-30T15:18:21;18.90;80.70
67141;DHT22;54058;52.010;5.546;2023-08-30T15:20:46;18.70;81.50
67141;DHT22;54058;52.010;5.546;2023-08-30T15:23:14;18.60;82.10
67141;DHT22;54058;52.010;5.546;2023-08-30T15:25:46;18.60;82.50
67141;DHT22;54058;52.010;5.546;2023-08-30T15:28:13;18.50;82.90
67141;DHT22;54058;52.010;5.546;2023-08-30T15:30:42;18.40;82.90